Terminal Aerodrome Forecast
Issued by NWS

Home | Current Version | Previous Version | Text Only | Print | Product List | Glossary On
Versions: 1 2 3 4 5 6 7 8 9 10 11 12 13 14 15 16 17 18 19 20 21 22 23 24 25 26 27 28 29 30 31 32 33 34 35 36 37 38
000
FTUS44 KHGX 011720
TAFCXO
TAF
KCXO 011720Z 0118/0218 19010KT P6SM SCT035 BKN250
     FM012000 16011KT P6SM VCSH SCT035 BKN200
      TEMPO 0120/0124 TSRA BKN030CB
     FM020200 16008KT P6SM SCT025 BKN140
     FM020700 16006KT 5SM BR SCT007 BKN012
     FM021600 18011KT P6SM BKN020=

USA.gov is the U.S. government's official web portal to all federal, state and local government web resources and services.